地図

経路データ

SID SEASON NUMBER BASIN SUBBASIN NAME ISO_TIME NATURE LAT LON WMO_WIND WMO_PRES WMO_AGENCY TRACK_TYPE DIST2LAND LANDFALL IFLAG USA_AGENCY USA_ATCF_ID USA_LAT USA_LON USA_RECORD USA_STATUS USA_WIND USA_PRES USA_SSHS USA_R34_NE USA_R34_SE USA_R34_SW USA_R34_NW USA_R50_NE USA_R50_SE USA_R50_SW USA_R50_NW USA_R64_NE USA_R64_SE USA_R64_SW USA_R64_NW USA_POCI USA_ROCI USA_RMW USA_EYE TOKYO_LAT TOKYO_LON TOKYO_GRADE TOKYO_WIND TOKYO_PRES TOKYO_R50_DIR TOKYO_R50_LONG TOKYO_R50_SHORT TOKYO_R30_DIR TOKYO_R30_LONG TOKYO_R30_SHORT TOKYO_LAND CMA_LAT CMA_LON CMA_CAT CMA_WIND CMA_PRES HKO_LAT HKO_LON HKO_CAT HKO_WIND HKO_PRES NEWDELHI_LAT NEWDELHI_LON NEWDELHI_GRADE NEWDELHI_WIND NEWDELHI_PRES NEWDELHI_CI NEWDELHI_DP NEWDELHI_POCI REUNION_LAT REUNION_LON REUNION_TYPE REUNION_WIND REUNION_PRES REUNION_TNUM REUNION_CI REUNION_RMW REUNION_R34_NE REUNION_R34_SE REUNION_R34_SW REUNION_R34_NW REUNION_R50_NE REUNION_R50_SE REUNION_R50_SW REUNION_R50_NW REUNION_R64_NE REUNION_R64_SE REUNION_R64_SW REUNION_R64_NW BOM_LAT BOM_LON BOM_TYPE BOM_WIND BOM_PRES BOM_TNUM BOM_CI BOM_RMW BOM_R34_NE BOM_R34_SE BOM_R34_SW BOM_R34_NW BOM_R50_NE BOM_R50_SE BOM_R50_SW BOM_R50_NW BOM_R64_NE BOM_R64_SE BOM_R64_SW BOM_R64_NW BOM_ROCI BOM_POCI BOM_EYE BOM_POS_METHOD BOM_PRES_METHOD NADI_LAT NADI_LON NADI_CAT NADI_WIND NADI_PRES WELLINGTON_LAT WELLINGTON_LON WELLINGTON_WIND WELLINGTON_PRES DS824_LAT DS824_LON DS824_STAGE DS824_WIND DS824_PRES TD9636_LAT TD9636_LON TD9636_STAGE TD9636_WIND TD9636_PRES TD9635_LAT TD9635_LON TD9635_WIND TD9635_PRES TD9635_ROCI NEUMANN_LAT NEUMANN_LON NEUMANN_CLASS NEUMANN_WIND NEUMANN_PRES MLC_LAT MLC_LON MLC_CLASS MLC_WIND MLC_PRES USA_GUST BOM_GUST BOM_GUST_PER REUNION_GUST REUNION_GUST_PER USA_SEAHGT USA_SEARAD_NE USA_SEARAD_SE USA_SEARAD_SW USA_SEARAD_NW STORM_SPEED STORM_DIR
1995215N12145 1995 40 WP MM HELEN 1995-08-03 00:00:00 NR 12.0000 145.300 main 1586 1586 O_____________ jtwc_wp WP081995 12.0000 145.300 15 -1 7 286
1995215N12145 1995 40 WP MM HELEN 1995-08-03 03:00:00 NR 12.1001 144.953 main 1600 1600 P_____________ WP081995 12.1001 144.953 15 -1 7 286
1995215N12145 1995 40 WP MM HELEN 1995-08-03 06:00:00 NR 12.2000 144.600 main 1617 1617 O_____________ jtwc_wp WP081995 12.2000 144.600 15 -1 7 286
1995215N12145 1995 40 WP MM HELEN 1995-08-03 09:00:00 NR 12.3000 144.242 main 1635 1635 P_____________ WP081995 12.3000 144.242 15 -1 7 286
1995215N12145 1995 40 WP MM HELEN 1995-08-03 12:00:00 NR 12.4000 143.900 main 1651 1651 O_____________ jtwc_wp WP081995 12.4000 143.900 15 -1 7 287
1995215N12145 1995 40 WP MM HELEN 1995-08-03 15:00:00 NR 12.4925 143.585 main 1669 1669 P_____________ WP081995 12.4925 143.585 17 -1 6 289
1995215N12145 1995 40 WP MM HELEN 1995-08-03 18:00:00 NR 12.6000 143.300 main 1686 1684 O_____________ jtwc_wp WP081995 12.6000 143.300 20 -1 6 296
1995215N12145 1995 40 WP MM HELEN 1995-08-03 21:00:00 NR 12.7499 143.050 main 1691 1691 P_____________ WP081995 12.7499 143.050 20 -1 6 302
1995215N12145 1995 40 WP MM HELEN 1995-08-04 00:00:00 NR 12.9000 142.800 main 1702 1698 O_____________ jtwc_wp WP081995 12.9000 142.800 20 -1 6 297
1995215N12145 1995 40 WP MM HELEN 1995-08-04 03:00:00 NR 13.0150 142.507 main 1703 1700 P_____________ WP081995 13.0150 142.507 17 -1 6 289
1995215N12145 1995 40 WP MM HELEN 1995-08-04 06:00:00 NR 13.1000 142.200 main 1705 1692 O_____________ jtwc_wp WP081995 13.1000 142.200 15 -1 6 284
1995215N12145 1995 40 WP MM HELEN 1995-08-04 09:00:00 NR 13.1575 141.900 main 1702 1689 P_____________ WP081995 13.1575 141.900 15 -1 6 280
1995215N12145 1995 40 WP MM HELEN 1995-08-04 12:00:00 NR 13.2000 141.600 main 1689 1677 O_____________ jtwc_wp WP081995 13.2000 141.600 15 -1 6 279
1995215N12145 1995 40 WP MM HELEN 1995-08-04 15:00:00 NR 13.2500 141.300 main 1677 1673 P_____________ WP081995 13.2500 141.300 15 -1 6 280
1995215N12145 1995 40 WP MM HELEN 1995-08-04 18:00:00 NR 13.3000 141.000 main 1673 1640 O_____________ jtwc_wp WP081995 13.3000 141.000 15 -1 6 280
1995215N12145 1995 40 WP MM HELEN 1995-08-04 21:00:00 NR 13.3500 140.700 main 1640 1610 P_____________ WP081995 13.3500 140.700 15 -1 6 280
1995215N12145 1995 40 WP MM HELEN 1995-08-05 00:00:00 NR 13.4000 140.400 main 1610 1577 O_____________ jtwc_wp WP081995 13.4000 140.400 15 -1 6 280
1995215N12145 1995 40 WP MM HELEN 1995-08-05 03:00:00 NR 13.4499 140.115 main 1577 1547 P_____________ WP081995 13.4499 140.115 15 -1 6 280
1995215N12145 1995 40 WP MM HELEN 1995-08-05 06:00:00 NR 13.5000 139.800 main 1547 1504 O_____________ jtwc_wp WP081995 13.5000 139.800 15 -1 7 278
1995215N12145 1995 40 WP MM HELEN 1995-08-05 09:00:00 NR 13.5426 139.400 main 1504 1463 P_____________ WP081995 13.5426 139.400 15 -1 8 277
1995215N12145 1995 40 WP MM HELEN 1995-08-05 12:00:00 NR 13.6000 139.000 main 1463 1434 O_____________ jtwc_wp WP081995 13.6000 139.000 15 -1 7 282
1995215N12145 1995 40 WP MM HELEN 1995-08-05 15:00:00 NR 13.6923 138.700 main 1434 1404 P_____________ WP081995 13.6923 138.700 17 -1 6 289
1995215N12145 1995 40 WP MM HELEN 1995-08-05 18:00:00 NR 13.8000 138.400 main 1404 1364 O_____________ jtwc_wp WP081995 13.8000 138.400 20 -1 7 288
1995215N12145 1995 40 WP MM HELEN 1995-08-05 21:00:00 NR 13.9075 138.015 main 1364 1324 P_____________ WP081995 13.9075 138.015 20 -1 8 284
1995215N12145 1995 40 WP MM HELEN 1995-08-06 00:00:00 NR 14.0000 137.600 main 1324 1282 O_____________ jtwc_wp WP081995 14.0000 137.600 20 -1 8 280
1995215N12145 1995 40 WP MM HELEN 1995-08-06 03:00:00 NR 14.0498 137.222 main 1282 1242 P_____________ WP081995 14.0498 137.222 20 -1 8 277
1995215N12145 1995 40 WP MM HELEN 1995-08-06 06:00:00 NR 14.1000 136.800 main 1242 1190 O_____________ jtwc_wp WP081995 14.1000 136.800 20 -1 9 279
1995215N12145 1995 40 WP MM HELEN 1995-08-06 09:00:00 NR 14.1925 136.280 main 1190 1129 P_____________ WP081995 14.1925 136.280 20 -1 11 281
1995215N12145 1995 40 WP MM HELEN 1995-08-06 12:00:00 NR 14.3000 135.700 main 1129 1068 O_____________ jtwc_wp WP081995 14.3000 135.700 20 -1 12 281
1995215N12145 1995 40 WP MM HELEN 1995-08-06 15:00:00 NR 14.4073 135.115 main 1068 1007 P_____________ WP081995 14.4073 135.115 20 -1 12 280
1995215N12145 1995 40 WP MM HELEN 1995-08-06 18:00:00 NR 14.5000 134.500 main 1007 947 O_____________ jtwc_wp WP081995 14.5000 134.500 20 -1 12 277
1995215N12145 1995 40 WP MM HELEN 1995-08-06 21:00:00 NR 14.5573 133.865 main 947 875 P_____________ WP081995 14.5573 133.865 22 -1 13 275
1995215N12145 1995 40 WP MM HELEN 1995-08-07 00:00:00 NR 14.6000 133.200 main 875 803 O_____________ jtwc_wp WP081995 14.6000 133.200 25 -1 13 273
1995215N12145 1995 40 WP MM HELEN 1995-08-07 03:00:00 NR 14.6273 132.515 main 803 777 P_____________ WP081995 14.6273 132.515 25 -1 10 281
1995215N12145 1995 40 WP MM HELEN 1995-08-07 06:00:00 TS 14.7857 132.171 1006 tokyo main 781 744 OOOO__________ jtwc_wp WP081995 14.7000 131.800 25 -1 15.2000 133.000 2 1006 0 0 0 15.2000 133.000 1 23 1005 14.3000 132.000 TD 25 1005 9 302
1995215N12145 1995 40 WP MM HELEN 1995-08-07 09:00:00 TS 15.1121 131.718 main 744 727 PPPP__________ WP081995 14.8400 131.035 27 -1 15.5928 132.443 2 1006 0 0 15.5928 132.443 1 23 1005 14.6148 131.645 TD 12 314
1995215N12145 1995 40 WP MM HELEN 1995-08-07 12:00:00 TS 15.6400 131.260 1006 tokyo main 732 719 OOOP__________ jtwc_wp WP081995 15.1000 130.300 30 -1 16.0000 131.900 2 1006 0 0 0 16.0000 131.900 1 23 1005 14.9304 131.282 TD 13 319
1995215N12145 1995 40 WP MM HELEN 1995-08-07 15:00:00 TS 16.1199 130.808 main 719 701 PPPP__________ WP081995 15.4898 129.655 30 -1 16.4349 131.385 2 1006 0 0 16.4349 131.385 1 23 1005 15.2480 130.904 TD 13 316
1995215N12145 1995 40 WP MM HELEN 1995-08-07 18:00:00 TS 16.6000 130.300 1006 tokyo main 701 684 OOOP__________ jtwc_wp WP081995 16.0000 129.100 30 -1 16.9000 130.900 2 1006 0 0 0 16.9000 130.900 1 23 1005 15.5692 130.504 TD 14 318
1995215N12145 1995 40 WP MM HELEN 1995-08-07 21:00:00 TS 17.1480 129.852 main 689 676 PPPP__________ WP081995 16.5847 128.627 30 -1 17.4297 130.465 2 1006 0 0 17.4297 130.465 1 26 1005 15.8950 130.074 TD 14 321
1995215N12145 1995 40 WP MM HELEN 1995-08-08 00:00:00 TS 17.6667 129.400 1006 tokyo main 683 664 OOOP__________ jtwc_wp WP081995 17.2000 128.200 30 -1 17.9000 130.000 2 1006 0 0 0 17.9000 130.000 1 29 1005 16.2268 129.607 TD 13 315
1995215N12145 1995 40 WP MM HELEN 1995-08-08 03:00:00 TS 18.0688 128.902 main 672 633 PPPP__________ WP081995 17.7871 127.787 30 -1 18.2096 129.460 2 1005 0 0 18.2096 129.460 1 29 1003 16.5657 129.096 TD 13 304
1995215N12145 1995 40 WP MM HELEN 1995-08-08 06:00:00 TS 18.3667 128.300 1004 tokyo main 633 559 OOOP__________ jtwc_wp WP081995 18.3000 127.300 30 -1 18.4000 128.800 2 1004 0 0 0 18.4000 128.800 1 29 1002 16.9128 128.532 TD 14 292
1995215N12145 1995 40 WP MM HELEN 1995-08-08 09:00:00 TS 18.5901 127.535 main 548 465 PPPP__________ WP081995 18.7253 126.615 30 -1 18.5225 127.995 2 1004 0 0 18.5225 127.995 1 29 1002 17.2690 127.909 TD 16 284
1995215N12145 1995 40 WP MM HELEN 1995-08-08 12:00:00 TS 18.7333 126.700 1004 tokyo main 465 391 OOOP__________ jtwc_wp WP081995 19.0000 125.900 30 -1 18.6000 127.100 2 1004 0 0 0 18.6000 127.100 1 29 1002 17.6353 127.218 TD 15 276
1995215N12145 1995 40 WP MM HELEN 1995-08-08 15:00:00 TS 18.7479 125.952 main 391 308 PPPP__________ WP081995 19.1020 125.342 30 -1 18.6847 126.207 2 1003 0 0 18.6847 126.207 1 29 1002 18.0121 126.451 TD 14 274
1995215N12145 1995 40 WP MM HELEN 1995-08-08 18:00:00 TS 18.8286 125.200 1002 tokyo main 308 241 OOOO__________ jtwc_wp WP081995 19.1000 124.800 XX 30 -5 18.8000 125.300 2 1002 0 0 0 18.8000 125.300 1 29 1002 18.4000 125.600 TD 30 1000 15 279
1995215N12145 1995 40 WP MM HELEN 1995-08-08 21:00:00 TS 18.9918 124.405 main 231 157 PPPP__________ WP081995 19.1070 124.202 XX 32 -5 18.9995 124.408 2 1001 0 0 18.9997 124.393 1 31 1000 18.7853 124.668 TD 32 999 16 282
1995215N12145 1995 40 WP MM HELEN 1995-08-09 00:00:00 TS 19.1500 123.550 1000 tokyo main 163 109 OOOO__________ jtwc_wp WP081995 19.1000 123.500 XX 35 -5 19.2000 123.500 2 1000 0 0 0 19.2000 123.500 2 34 998 19.1000 123.700 TS 35 998 17 280
1995215N12145 1995 40 WP MM HELEN 1995-08-09 03:00:00 TS 19.2751 122.617 main 105 98 PPPP__________ WP081995 19.1006 122.600 XX 35 -5 19.3377 122.513 2 999 0 0 19.3372 122.628 2 34 998 19.3248 122.728 TS 37 997 17 276
1995215N12145 1995 40 WP MM HELEN 1995-08-09 06:00:00 TS 19.3250 121.725 35 998 tokyo main 94 79 OOOO__________ jtwc_wp WP081995 19.1000 121.700 XX 35 -5 19.4000 121.600 3 35 998 0 9 60 60 0 19.4000 121.800 2 34 998 19.4000 121.800 TS 40 996 16 271
1995215N12145 1995 40 WP MM HELEN 1995-08-09 09:00:00 TS 19.2997 120.952 main 79 74 PPPP__________ WP081995 19.1145 120.990 XX 35 -5 19.3945 120.875 3 35 998 0 9 60 60 19.3949 120.997 2 36 996 19.2947 120.947 TS 40 996 14 265
1995215N12145 1995 40 WP MM HELEN 1995-08-09 12:00:00 TS 19.2000 120.300 35 998 tokyo main 85 85 OOOO__________ jtwc_wp WP081995 19.1000 120.400 XX 35 -5 19.3000 120.300 3 35 998 0 9 60 60 0 19.3000 120.300 2 38 995 19.1000 120.200 TS 40 996 12 258
1995215N12145 1995 40 WP MM HELEN 1995-08-09 15:00:00 TS 19.0615 119.756 main 115 115 PPPP__________ WP081995 19.0297 119.878 XX 37 -5 19.1221 119.820 3 37 997 0 9 70 70 19.1219 119.770 2 38 995 18.9721 119.555 TS 40 996 10 251
1995215N12145 1995 40 WP MM HELEN 1995-08-09 18:00:00 TS 18.8750 119.275 40 996 tokyo main 147 147 OOOO__________ jtwc_wp WP081995 18.9000 119.400 XX 40 -5 18.9000 119.400 3 40 996 0 9 80 80 0 18.9000 119.300 2 38 995 18.8000 119.000 TS 40 996 10 246
1995215N12145 1995 40 WP MM HELEN 1995-08-09 21:00:00 TS 18.6536 118.769 main 191 191 PPPP__________ WP081995 18.7001 118.870 XX 40 -5 18.6849 118.942 3 40 996 0 9 80 80 18.7222 118.780 2 38 995 18.5072 118.485 TS 42 993 11 245
1995215N12145 1995 40 WP MM HELEN 1995-08-10 00:00:00 TS 18.4250 118.275 40 996 tokyo main 229 229 OOOO__________ jtwc_wp WP081995 18.5000 118.400 XX 40 -5 18.5000 118.500 3 40 996 0 9 80 80 0 18.5000 118.200 2 38 995 18.2000 118.000 TS 45 990 10 244
1995215N12145 1995 40 WP MM HELEN 1995-08-10 03:00:00 TS 18.1981 117.785 main 272 272 PPPP__________ WP081995 18.3773 118.070 XX 42 -5 18.3623 118.108 3 40 996 0 9 80 80 18.1054 117.477 2 41 992 17.9475 117.485 TS 45 990 10 247
1995215N12145 1995 40 WP MM HELEN 1995-08-10 06:00:00 TS 18.0500 117.325 40 996 tokyo main 322 320 OOOO__________ jtwc_wp WP081995 18.3000 117.800 XX 45 -5 18.3000 117.700 3 40 996 0 9 80 80 0 17.8000 116.800 2 44 990 17.8000 117.000 TS 45 990 9 259
1995215N12145 1995 40 WP MM HELEN 1995-08-10 09:00:00 TS 18.0387 116.893 main 362 362 PPPP__________ WP081995 18.2274 117.515 XX 45 -5 18.3202 117.178 3 40 995 0 9 90 90 17.8247 116.326 2 46 987 17.7825 116.555 TS 45 990 8 276
1995215N12145 1995 40 WP MM HELEN 1995-08-10 12:00:00 TS 18.1250 116.525 40 994 tokyo main 404 404 OOOO__________ jtwc_wp WP081995 18.2000 117.200 XX 45 -5 18.4000 116.700 3 40 994 0 9 100 100 0 18.0000 116.000 3 48 985 17.9000 116.200 TS 45 990 7 286
1995215N12145 1995 40 WP MM HELEN 1995-08-10 15:00:00 TS 18.2212 116.227 main 437 437 PPPP__________ WP081995 18.1901 116.792 XX 47 -5 18.4773 116.405 3 42 993 0 9 110 110 18.1124 115.747 3 48 985 18.1049 115.962 TS 45 990 6 299
1995215N12145 1995 40 WP MM HELEN 1995-08-10 18:00:00 TS 18.4000 116.000 45 992 tokyo main 463 442 OOOO__________ jtwc_wp WP081995 18.3000 116.400 XX 50 -5 18.6000 116.200 3 45 992 0 9 120 120 0 18.3000 115.600 3 48 985 18.4000 115.800 TS 45 990 6 319
1995215N12145 1995 40 WP MM HELEN 1995-08-10 21:00:00 TS 18.6674 115.822 main 431 396 PPPP__________ WP081995 18.5974 116.120 XX 52 -5 18.7474 116.000 3 45 991 0 9 120 120 18.5975 115.535 3 48 985 18.7275 115.635 TS 47 987 7 334
1995215N12145 1995 40 WP MM HELEN 1995-08-11 00:00:00 TS 19.0250 115.675 45 990 tokyo main 396 347 OOOO__________ jtwc_wp WP081995 19.0000 115.900 XX 55 -5 19.0000 115.800 3 45 990 0 9 120 120 0 19.0000 115.500 3 48 985 19.1000 115.500 STS 50 985 8 339
1995215N12145 1995 40 WP MM HELEN 1995-08-11 03:00:00 TS 19.4456 115.512 main 347 291 PPPP__________ WP081995 19.3850 115.692 XX 57 -5 19.4201 115.543 3 47 987 0 9 130 130 19.4925 115.415 3 53 982 19.4850 115.400 STS 52 982 9 341
1995215N12145 1995 40 WP MM HELEN 1995-08-11 06:00:00 TS 19.9000 115.350 50 985 tokyo main 291 242 OOOO__________ jtwc_wp WP081995 19.8000 115.500 XX 60 -5 19.9000 115.300 4 50 985 0 9 140 140 0 20.0000 115.300 3 58 980 19.9000 115.300 STS 55 980 9 341
1995215N12145 1995 40 WP MM HELEN 1995-08-11 09:00:00 TS 20.3344 115.184 main 242 193 PPPP__________ WP081995 20.2425 115.292 XX 60 -5 20.3149 115.135 4 50 985 0 9 140 140 20.4300 115.158 3 58 980 20.3500 115.150 STS 55 980 9 340
1995215N12145 1995 40 WP MM HELEN 1995-08-11 12:00:00 TS 20.7500 115.025 50 985 tokyo main 182 147 OOOO__________ jtwc_wp WP081995 20.7000 115.100 XX 60 -5 20.7000 115.000 4 50 985 0 9 140 140 0 20.8000 115.000 3 58 980 20.8000 115.000 STS 55 980 8 339
1995215N12145 1995 40 WP MM HELEN 1995-08-11 15:00:00 TS 21.1175 114.871 main 147 103 PPPP__________ WP081995 21.1575 114.935 XX 62 -5 21.0350 114.828 4 50 985 0 9 140 130 21.0775 114.827 3 58 980 21.2000 114.892 STS 55 980 8 341
1995215N12145 1995 40 WP MM HELEN 1995-08-11 18:00:00 TS 21.5000 114.750 50 985 tokyo main 103 60 OOOO__________ jtwc_wp WP081995 21.6000 114.800 XX 65 -5 21.4000 114.700 4 50 985 0 3 140 120 0 21.4000 114.700 3 58 980 21.6000 114.800 STS 55 980 9 349
1995215N12145 1995 40 WP MM HELEN 1995-08-11 21:00:00 TS 21.9637 114.690 main 53 15 PPPP__________ WP081995 22.0000 114.685 XX 67 -5 21.8775 114.692 4 47 987 0 3 140 110 21.9275 114.692 3 58 980 22.0500 114.693 STS 55 980 10 354
1995215N12145 1995 40 WP MM HELEN 1995-08-12 00:00:00 TS 22.4500 114.650 45 990 tokyo main 10 0 OOOO__________ jtwc_wp WP081995 22.4000 114.600 XX 70 -5 22.4000 114.700 3 45 990 0 3 140 100 0 22.5000 114.700 3 58 980 22.5000 114.600 STS 55 980 10 353
1995215N12145 1995 40 WP MM HELEN 1995-08-12 03:00:00 TS 22.9113 114.568 main 0 0 PPPP__________ WP081995 22.8425 114.535 XX 60 -5 22.9150 114.600 3 42 992 0 3 140 90 22.9800 114.600 3 51 985 22.9075 114.535 STS 52 982 9 351
1995215N12145 1995 40 WP MM HELEN 1995-08-12 06:00:00 TS 23.3533 114.500 40 994 tokyo main 0 0 OOOO__________ jtwc_wp WP081995 23.3000 114.500 50 -1 23.4000 114.500 3 40 994 0 3 140 80 0 23.4000 114.500 2 44 990 23.3000 114.500 STS 50 985 9 354
1995215N12145 1995 40 WP MM HELEN 1995-08-12 09:00:00 TS 23.7567 114.467 main 0 0 PPPP__________ WP081995 23.7500 114.478 42 -1 23.8074 114.455 3 37 996 0 3 130 70 23.7424 114.455 2 41 992 23.6975 114.492 STS 45 990 8 0
1995215N12145 1995 40 WP MM HELEN 1995-08-12 12:00:00 TS 24.1615 114.500 35 998 tokyo main 0 0 OOOO__________ jtwc_wp WP081995 24.2000 114.500 35 -1 24.2000 114.500 3 35 998 0 3 120 60 0 24.1000 114.500 2 38 995 24.1000 114.500 TS 40 995 9 10
1995215N12145 1995 40 WP MM HELEN 1995-08-12 15:00:00 TS 24.6008 114.629 main 0 0 PPP___________ WP081995 24.6499 114.563 32 -1 24.6050 114.663 3 1000 0 3 24.5475 114.663 2 33 996 TS 10 18
1995215N12145 1995 40 WP MM HELEN 1995-08-12 18:00:00 TS 25.1000 114.833 1002 tokyo main 0 0 OOO___________ jtwc_wp WP081995 25.1000 114.700 30 -1 25.1000 114.900 2 1002 0 0 0 25.1000 114.900 1 29 998 12 20
1995215N12145 1995 40 WP MM HELEN 1995-08-12 21:00:00 TS 25.6901 115.074 main 0 0 PPP___________ WP081995 25.5502 114.924 27 -1 25.7526 115.149 2 1003 0 0 25.7676 115.149 1 26 1000 13 20
1995215N12145 1995 40 WP MM HELEN 1995-08-13 00:00:00 TS 26.3333 115.333 1004 tokyo main 0 OOO___________ jtwc_wp WP081995 26.0000 115.200 25 -1 26.5000 115.400 2 1004 0 0 0 26.5000 115.400 1 23 1002 14 20

デジタル台風データ・検索

IBTrACS Databaseについて

本データベースは、米国NOAAが公開する1842年以降の世界の熱帯低気圧のベストトラックデータアーカイブInternational Best Track Archive for Climate Stewardship (IBTrACS)を、ウェブで閲覧しやすい形式に変換したものです。

最終更新日:2021-11-26